ΕΜΥ, Εθνική Μετεωρολογική Υπηρεσία - Δελτία Καιρού, Προγνώσεις

ΑΕΡΟΝΑΥΤΙΛΙΑ

GREEK AIRPORTS CODES

TAF LGMG 100400Z 1006/1015 15010KT 8000 FEW015 SCT025 PROB30 TEMPO 1006/1009 5000 RA SCT015 BKN025 BECMG 1012/1014 18015G25KT=

EUROPEAN AIRPORTS CODES